Schaupps, Nebraska
Current Conditions -  °F | °C
As of 1:53 AM on Tuesday 21 Oct 2014 (Local Time) from KODX Reporting Station
Clear Clear  
Wind Chill:   Ceiling: Unl
Heat Index:   Visibility: NA
Dew Point:   Wind: 3mph
Humidity: 82%   Direction: 120°ESE
Pressure: 30.05"   Gusts: NA
Location:  41.3°N, 98.8143°W
Report Text: KODX 210653Z AUTO 12003KT CLR 05/02 A3005 RMK AO2 SLP177 T00500022 $
Loading
Personal Weather Stations






























Interactive Weather Map
Tropical Storm Tracking
New forecast layout! Learn more

10-Day Weather Forecast

Advertisements
Track Severe Weather on mobile